Time;durP1;ratioP1;P1;durP2;ratioP2;P2;SDS_P1;SDS_P2;PMS_P1;PMS_P2;Temp;Humidity;BMP_temperature;BMP_pressure;BME280_temperature;BME280_humidity;BME280_pressure;Samples;Min_cycle;Max_cycle;Signal;HPM_P1;HPM_P2
2022/03/22 00:02:32;;;;;;;46.87;21.90;;;;;;;-1.43;55.84;101058.81;2117367;84;21295;-83
2022/03/22 00:05:33;;;;;;;45.53;21.73;;;;;;;-1.41;55.78;101059.48;2110451;84;21005;-83
2022/03/22 00:08:33;;;;;;;42.80;20.80;;;;;;;-1.41;55.80;101058.58;2117945;84;21024;-82
2022/03/22 00:11:34;;;;;;;70.40;26.77;;;;;;;-1.46;55.93;101056.88;2119210;84;21076;-82
2022/03/22 00:14:34;;;;;;;57.57;24.67;;;;;;;-1.50;56.14;101057.72;2110589;84;21081;-81
2022/03/22 00:17:35;;;;;;;50.03;22.53;;;;;;;-1.55;56.07;101053.45;2124161;84;21377;-82
2022/03/22 00:20:35;;;;;;;52.87;23.50;;;;;;;-1.59;56.25;101059.41;2117166;84;21029;-82
2022/03/22 00:23:36;;;;;;;55.43;23.93;;;;;;;-1.63;56.36;101060.78;2124624;84;21061;-83
2022/03/22 00:26:36;;;;;;;54.33;23.93;;;;;;;-1.69;56.46;101053.80;2117342;84;20959;-82
2022/03/22 00:29:37;;;;;;;55.37;22.73;;;;;;;-1.71;56.58;101054.03;2118252;84;21015;-82
2022/03/22 00:32:37;;;;;;;41.60;20.30;;;;;;;-1.72;56.58;101057.35;2116405;84;21030;-82
2022/03/22 00:35:38;;;;;;;46.33;22.63;;;;;;;-1.75;56.71;101057.92;2120578;84;20951;-82
2022/03/22 00:38:38;;;;;;;69.77;24.53;;;;;;;-1.71;56.82;101054.94;2125858;84;20931;-82
2022/03/22 00:41:39;;;;;;;359.07;141.43;;;;;;;-1.65;56.84;101057.17;2123753;84;21041;-82
2022/03/22 00:44:39;;;;;;;87.27;38.57;;;;;;;-1.69;56.74;101057.64;2112854;84;21010;-83
2022/03/22 00:47:40;;;;;;;58.50;26.13;;;;;;;-1.75;57.05;101055.74;2125800;84;21389;-82
2022/03/22 00:50:41;;;;;;;51.97;24.03;;;;;;;-1.79;57.31;101051.98;2125712;84;21007;-82
2022/03/22 00:53:41;;;;;;;51.67;24.53;;;;;;;-1.79;57.51;101054.55;2125895;84;20954;-83
2022/03/22 00:56:42;;;;;;;65.27;27.57;;;;;;;-1.80;57.59;101046.72;2124109;84;21007;-82
2022/03/22 01:03:01;;;;;;;58.70;27.30;;;;;;;-1.95;57.48;101048.34;2125885;84;21067;-84
2022/03/22 01:06:02;;;;;;;56.53;25.30;;;;;;;-2.07;57.56;101046.27;2126247;84;21325;-84
2022/03/22 01:09:03;;;;;;;54.53;24.83;;;;;;;-2.10;57.88;101046.87;2118484;84;21034;-84
2022/03/22 01:12:03;;;;;;;56.40;25.13;;;;;;;-2.09;57.89;101043.56;2125275;84;21066;-84
2022/03/22 01:15:04;;;;;;;60.57;26.93;;;;;;;-2.09;57.87;101041.00;2117104;84;20979;-84
2022/03/22 01:18:05;;;;;;;59.20;25.30;;;;;;;-2.08;57.91;101049.20;2116371;83;20991;-84
2022/03/22 01:21:06;;;;;;;58.77;26.73;;;;;;;-2.03;57.83;101048.37;2121021;84;20994;-84
2022/03/22 01:24:07;;;;;;;53.03;24.97;;;;;;;-2.00;58.21;101050.84;2120459;84;20911;-82
2022/03/22 01:27:07;;;;;;;185.87;37.63;;;;;;;-2.06;58.11;101046.80;2112185;83;20998;-84
2022/03/22 01:30:08;;;;;;;69.27;28.47;;;;;;;-2.08;58.39;101047.02;2114426;84;21318;-84
2022/03/22 01:33:11;;;;;;;56.40;25.80;;;;;;;-2.08;58.41;101045.74;2124768;84;21274;-84
2022/03/22 01:36:11;;;;;;;62.43;27.53;;;;;;;-2.09;58.45;101046.13;2111897;84;21022;-84
2022/03/22 01:39:11;;;;;;;58.43;26.57;;;;;;;-2.08;58.47;101044.47;2114052;84;20923;-84
2022/03/22 01:42:12;;;;;;;58.27;26.97;;;;;;;-2.11;58.54;101050.19;2114931;84;21378;-84
2022/03/22 01:45:12;;;;;;;56.27;26.07;;;;;;;-2.13;58.75;101049.52;2111189;83;21381;-83
2022/03/22 01:48:14;;;;;;;59.60;25.93;;;;;;;-2.11;58.66;101048.01;2118109;84;20982;-83
2022/03/22 01:51:14;;;;;;;70.83;27.83;;;;;;;-2.17;58.63;101047.04;2116147;84;21053;-84
2022/03/22 01:54:15;;;;;;;74.20;29.83;;;;;;;-2.20;58.76;101044.56;2118322;84;20966;-84
2022/03/22 01:57:17;;;;;;;61.20;28.17;;;;;;;-2.22;58.68;101044.41;2117220;84;21002;-84
2022/03/22 02:00:17;;;;;;;65.43;28.10;;;;;;;-2.29;58.75;101043.30;2112778;84;21011;-84
2022/03/22 02:06:37;;;;;;;64.27;28.23;;;;;;;-2.33;59.25;101036.08;2117388;83;20978;-84
2022/03/22 02:09:37;;;;;;;71.80;27.67;;;;;;;-2.35;59.35;101043.60;2119838;84;21315;-84
2022/03/22 02:12:38;;;;;;;64.07;27.73;;;;;;;-2.42;59.35;101041.20;2112663;84;21476;-84
2022/03/22 02:15:39;;;;;;;58.33;26.80;;;;;;;-2.45;59.56;101038.72;2112475;83;21101;-83
2022/03/22 02:18:40;;;;;;;52.00;25.50;;;;;;;-2.44;59.73;101039.25;2124598;84;21429;-84
2022/03/22 02:21:40;;;;;;;62.73;25.63;;;;;;;-2.48;59.57;101046.09;2120307;84;21105;-84
2022/03/22 02:24:41;;;;;;;54.30;25.00;;;;;;;-2.58;59.68;101049.41;2109478;83;21401;-84
2022/03/22 02:27:41;;;;;;;51.90;24.00;;;;;;;-2.57;59.96;101040.98;2117982;83;20982;-84
2022/03/22 02:30:42;;;;;;;154.33;31.30;;;;;;;-2.55;60.26;101043.31;2118704;84;21424;-83
2022/03/22 02:33:42;;;;;;;64.77;25.97;;;;;;;-2.51;60.30;101052.19;2118941;84;20955;-83
2022/03/22 02:36:44;;;;;;;51.77;21.63;;;;;;;-2.51;60.39;101047.08;2117962;84;20959;-84
2022/03/22 02:39:45;;;;;;;53.03;22.67;;;;;;;-2.49;60.44;101048.13;2120242;84;21066;-83
2022/03/22 02:42:45;;;;;;;42.00;21.43;;;;;;;-2.58;60.36;101051.59;2111131;83;21014;-85
2022/03/22 02:45:46;;;;;;;42.83;22.00;;;;;;;-2.62;60.49;101049.83;2118989;84;21382;-84
2022/03/22 02:48:46;;;;;;;51.70;23.63;;;;;;;-2.65;60.50;101052.08;2121087;83;21027;-84
2022/03/22 02:51:47;;;;;;;53.57;24.10;;;;;;;-2.68;60.60;101049.22;2124262;84;20944;-82
2022/03/22 02:54:47;;;;;;;74.27;27.03;;;;;;;-2.67;60.81;101054.48;2115167;84;20979;-83
2022/03/22 02:57:48;;;;;;;57.63;25.73;;;;;;;-2.64;61.04;101048.77;2125481;84;20924;-82
2022/03/22 03:00:49;;;;;;;53.87;24.97;;;;;;;-2.65;60.81;101051.70;2125692;84;20982;-82
2022/03/22 03:03:49;;;;;;;143.77;32.43;;;;;;;-2.69;60.94;101050.87;2119705;83;21038;-82
2022/03/22 03:06:50;;;;;;;97.17;26.90;;;;;;;-2.74;61.07;101050.80;2114750;84;20928;-83
2022/03/22 03:09:50;;;;;;;233.13;41.73;;;;;;;-2.73;61.17;101055.16;2118242;83;20982;-83
2022/03/22 03:12:51;;;;;;;115.77;31.70;;;;;;;-2.72;61.17;101051.85;2119860;84;21073;-83
2022/03/22 03:15:52;;;;;;;68.63;26.20;;;;;;;-2.66;61.47;101053.73;2119002;84;20988;-84
2022/03/22 03:18:52;;;;;;;58.70;26.27;;;;;;;-2.65;61.44;101050.80;2104621;84;20947;-84
2022/03/22 03:21:53;;;;;;;55.63;26.23;;;;;;;-2.70;61.29;101047.80;2117531;84;21061;-85
2022/03/22 03:24:53;;;;;;;55.63;24.80;;;;;;;-2.83;61.15;101048.98;2126057;84;21007;-84
2022/03/22 03:27:54;;;;;;;63.23;27.63;;;;;;;-2.92;61.41;101058.82;2126294;84;20955;-83
2022/03/22 03:30:54;;;;;;;67.13;26.20;;;;;;;-2.91;61.58;101053.34;2113311;84;20931;-84
2022/03/22 03:33:55;;;;;;;155.50;35.83;;;;;;;-2.89;61.76;101050.19;2125974;84;20919;-83
2022/03/22 03:36:55;;;;;;;124.40;28.57;;;;;;;-2.91;61.85;101052.06;2111371;83;20971;-85
2022/03/22 03:39:56;;;;;;;56.07;25.37;;;;;;;-2.89;61.90;101054.39;2121337;84;20951;-84
2022/03/22 03:42:56;;;;;;;55.47;24.63;;;;;;;-2.93;61.73;101054.84;2119177;84;20983;-84
2022/03/22 03:49:16;;;;;;;59.00;23.80;;;;;;;-3.06;61.99;101057.81;2121254;83;21013;-84
2022/03/22 03:52:17;;;;;;;158.23;30.37;;;;;;;-3.10;62.04;101064.65;2125638;84;21015;-80
2022/03/22 03:55:17;;;;;;;48.07;23.10;;;;;;;-3.10;62.44;101060.81;2111592;84;20951;-84
2022/03/22 03:58:18;;;;;;;53.27;24.93;;;;;;;-3.05;62.51;101063.83;2117326;84;20967;-83
2022/03/22 04:01:18;;;;;;;57.83;24.57;;;;;;;-3.04;62.49;101064.36;2109980;84;20943;-83
2022/03/22 04:04:19;;;;;;;50.60;24.63;;;;;;;-3.07;62.49;101058.56;2120776;83;20947;-84
2022/03/22 04:07:19;;;;;;;55.17;24.13;;;;;;;-3.10;62.53;101055.70;2119905;84;20951;-83
2022/03/22 04:10:20;;;;;;;49.77;25.23;;;;;;;-3.10;62.70;101054.80;2110839;83;21330;-83
2022/03/22 04:13:20;;;;;;;92.13;26.90;;;;;;;-3.13;62.64;101058.33;2110378;84;21350;-83
2022/03/22 04:16:21;;;;;;;49.27;24.63;;;;;;;-3.13;62.57;101057.05;2117277;84;21035;-83
2022/03/22 04:19:21;;;;;;;51.40;23.90;;;;;;;-3.14;62.75;101061.26;2109558;84;20971;-83
2022/03/22 04:22:22;;;;;;;61.60;25.87;;;;;;;-3.16;62.82;101065.31;2109414;84;21039;-83
2022/03/22 04:25:23;;;;;;;58.67;26.70;;;;;;;-3.12;63.00;101065.24;2110156;84;21034;-82
2022/03/22 04:35:02;;;;;;;56.03;26.40;;;;;;;-3.21;62.60;101074.16;2099990;83;21086;-84
2022/03/22 04:38:02;;;;;;;57.47;26.83;;;;;;;-3.31;62.65;101071.42;2094908;83;21466;-84
2022/03/22 04:41:03;;;;;;;70.53;26.93;;;;;;;-3.39;62.95;101071.02;2095216;84;21005;-84
2022/03/22 04:44:03;;;;;;;98.93;28.67;;;;;;;-3.42;63.41;101073.27;2095635;84;21007;-81
2022/03/22 04:47:04;;;;;;;151.70;34.43;;;;;;;-3.39;63.43;101074.48;2095189;84;21015;-83
2022/03/22 04:50:07;;;;;;;80.97;29.57;;;;;;;-3.35;63.36;101075.32;2113417;84;20991;-83
2022/03/22 04:56:46;;;;;;;60.73;26.27;;;;;;;-3.23;63.01;101079.49;2108316;84;21014;-84
2022/03/22 04:59:48;;;;;;;57.97;25.50;;;;;;;-3.19;63.26;101085.81;2118969;84;21054;-84
2022/03/22 05:02:48;;;;;;;52.17;24.07;;;;;;;-3.19;63.40;101084.16;2119306;84;21006;-85
2022/03/22 05:09:08;;;;;;;421.03;54.73;;;;;;;-3.26;63.60;101084.29;2115376;84;20995;-86
2022/03/22 05:12:13;;;;;;;209.70;40.47;;;;;;;-3.25;63.93;101083.54;2077809;85;21814;-85
2022/03/22 05:15:12;;;;;;;167.73;34.77;;;;;;;-3.17;63.84;101085.22;2095444;84;20967;-84
2022/03/22 05:18:13;;;;;;;75.33;26.10;;;;;;;-3.06;63.89;101079.53;2118356;84;21445;-85
2022/03/22 05:21:13;;;;;;;62.57;25.83;;;;;;;-2.95;63.72;101084.07;2119003;83;21025;-84
2022/03/22 05:24:13;;;;;;;55.33;25.23;;;;;;;-2.83;63.60;101081.84;2119070;84;21025;-86
2022/03/22 05:27:15;;;;;;;56.77;25.87;;;;;;;-2.70;63.39;101089.07;2113212;84;21468;-85
2022/03/22 05:30:16;;;;;;;56.10;26.33;;;;;;;-2.55;63.23;101085.88;2112115;84;20958;-85
2022/03/22 05:33:16;;;;;;;69.83;27.80;;;;;;;-2.36;63.17;101086.56;2113378;84;21022;-85
2022/03/22 05:36:17;;;;;;;53.47;25.27;;;;;;;-2.14;62.93;101079.31;2094442;84;20990;-85
2022/03/22 05:39:17;;;;;;;68.53;27.13;;;;;;;-1.96;62.74;101077.63;2117406;84;20970;-84
2022/03/22 05:42:18;;;;;;;55.20;26.67;;;;;;;-1.78;62.65;101080.67;2117157;83;21022;-84
2022/03/22 05:45:18;;;;;;;59.00;26.97;;;;;;;-1.58;62.60;101081.33;2103074;84;21046;-85
2022/03/22 05:48:19;;;;;;;75.60;29.53;;;;;;;-1.34;62.71;101080.17;2089201;85;21009;-82
2022/03/22 05:51:19;;;;;;;77.20;29.47;;;;;;;-1.12;62.35;101092.95;2113563;84;21053;-85
2022/03/22 05:54:20;;;;;;;69.30;27.57;;;;;;;-0.82;61.97;101093.64;2108259;83;20998;-80
2022/03/22 05:57:21;;;;;;;59.17;26.17;;;;;;;-0.69;61.27;101091.83;2098050;84;20994;-86
2022/03/22 06:00:24;;;;;;;83.93;27.23;;;;;;;-0.53;61.22;101092.84;2107617;84;21456;-85
2022/03/22 06:03:24;;;;;;;58.63;27.97;;;;;;;-0.35;61.07;101091.95;2116578;84;21045;-81
2022/03/22 06:06:25;;;;;;;97.57;28.90;;;;;;;-0.17;61.00;101092.31;2113183;84;21018;-81
2022/03/22 06:09:25;;;;;;;71.00;32.13;;;;;;;0.01;60.70;101094.37;2087919;84;21413;-79
2022/03/22 06:12:26;;;;;;;73.60;28.77;;;;;;;0.22;60.85;101098.84;2110881;84;21025;-81
2022/03/22 06:15:27;;;;;;;128.70;32.20;;;;;;;0.45;60.17;101098.28;2102813;84;21402;-82
2022/03/22 06:18:28;;;;;;;146.60;36.13;;;;;;;0.77;59.97;101103.64;2096858;84;21642;-80
2022/03/22 06:21:28;;;;;;;945.97;110.70;;;;;;;1.09;59.68;101097.81;2105776;83;21089;-81
2022/03/22 06:24:29;;;;;;;91.23;32.83;;;;;;;1.34;58.98;101095.63;2115655;84;21025;-79
2022/03/22 06:27:30;;;;;;;69.53;31.47;;;;;;;1.60;59.12;101087.12;2108251;84;20963;-81
2022/03/22 06:30:30;;;;;;;110.00;35.13;;;;;;;1.94;58.47;101089.53;2110660;84;20986;-80
2022/03/22 06:33:31;;;;;;;112.03;36.87;;;;;;;2.21;57.88;101097.30;2112479;83;21432;-81
2022/03/22 06:36:31;;;;;;;257.60;87.53;;;;;;;2.46;57.30;101090.75;2115888;84;21006;-81
2022/03/22 06:39:32;;;;;;;106.17;48.60;;;;;;;2.72;56.60;101094.52;2114471;83;21434;-81
2022/03/22 06:42:33;;;;;;;103.97;43.93;;;;;;;3.05;56.38;101085.53;2111064;84;21104;-82
2022/03/22 06:45:34;;;;;;;95.50;42.00;;;;;;;3.32;56.31;101089.71;2122952;84;21116;-73
2022/03/22 06:48:34;;;;;;;557.97;85.30;;;;;;;3.61;56.12;101088.97;2122633;84;21010;-80
2022/03/22 06:51:35;;;;;;;136.17;61.20;;;;;;;3.98;55.89;101079.67;2122054;84;20963;-82
2022/03/22 06:54:35;;;;;;;185.30;67.13;;;;;;;4.39;55.36;101073.65;2108788;83;21006;-83
2022/03/22 06:57:36;;;;;;;285.07;85.07;;;;;;;4.77;54.39;101079.34;2119123;84;21010;-82
2022/03/22 07:00:36;;;;;;;493.47;83.30;;;;;;;5.06;54.02;101074.90;2117132;83;20990;-82
2022/03/22 07:03:37;;;;;;;160.07;48.17;;;;;;;5.34;53.78;101074.73;2117804;84;21058;-81
2022/03/22 07:06:37;;;;;;;70.87;32.27;;;;;;;5.76;53.39;101074.12;2109480;83;21445;-81
2022/03/22 07:09:38;;;;;;;74.20;30.00;;;;;;;6.28;52.38;101076.28;2105373;84;21401;-82
2022/03/22 07:12:38;;;;;;;106.07;31.93;;;;;;;6.78;51.36;101074.69;2114159;84;21104;-80
2022/03/22 07:15:39;;;;;;;150.60;35.70;;;;;;;7.21;50.44;101070.86;2117730;84;21002;-83
2022/03/22 07:18:39;;;;;;;81.37;29.93;;;;;;;7.63;49.42;101071.22;2118716;84;20958;-83
2022/03/22 07:21:40;;;;;;;52.50;28.03;;;;;;;8.02;48.29;101069.17;2114004;84;21050;-83
2022/03/22 07:24:40;;;;;;;50.87;28.90;;;;;;;8.38;47.76;101076.48;2090023;85;20975;-80
2022/03/22 07:27:41;;;;;;;47.60;27.10;;;;;;;8.72;47.21;101081.88;2089468;84;21433;-83
2022/03/22 07:30:41;;;;;;;48.27;27.53;;;;;;;8.99;45.80;101075.95;2076271;85;21488;-81
2022/03/22 07:33:42;;;;;;;40.63;24.43;;;;;;;9.29;45.17;101082.30;2099768;84;21528;-83
2022/03/22 07:36:42;;;;;;;112.73;29.90;;;;;;;9.51;42.81;101073.06;2116748;84;20982;-82
2022/03/22 07:42:45;;;;;;;46.87;27.57;;;;;;;9.83;42.74;101080.36;2077824;84;21157;-83
2022/03/22 07:45:46;;;;;;;55.30;25.47;;;;;;;10.10;42.36;101077.81;2107953;84;20982;-84
2022/03/22 07:48:46;;;;;;;52.33;26.80;;;;;;;10.33;40.57;101081.98;2117691;84;21450;-81
2022/03/22 07:55:10;;;;;;;56.93;24.83;;;;;;;10.65;39.81;101079.22;2116801;84;21034;-82
2022/03/22 07:58:08;;;;;;;43.23;25.90;;;;;;;10.82;39.23;101083.92;2117094;84;21109;-83
2022/03/22 08:01:09;;;;;;;53.33;26.13;;;;;;;10.94;38.76;101075.75;2116655;84;21010;-83
2022/03/22 08:04:09;;;;;;;39.13;23.17;;;;;;;11.09;38.14;101076.44;2091636;83;21063;-85
2022/03/22 08:07:10;;;;;;;39.97;23.40;;;;;;;11.22;37.08;101078.78;2089455;84;20983;-83
2022/03/22 08:10:10;;;;;;;36.27;23.07;;;;;;;11.32;37.06;101074.47;2097761;84;20978;-83
2022/03/22 08:13:11;;;;;;;34.78;21.85;;;;;;;11.47;36.78;101070.33;2105012;84;21759;-82
2022/03/22 08:16:14;;;;;;;61.77;23.60;;;;;;;11.62;36.47;101072.71;2093541;84;21053;-82
2022/03/22 08:19:18;;;;;;;48.25;24.50;;;;;;;11.79;36.68;101068.70;2103262;84;21032;-83
2022/03/22 08:22:16;;;;;;;82.67;26.82;;;;;;;12.03;36.67;101075.38;2115316;84;21345;-82
2022/03/22 08:25:17;;;;;;;36.88;20.52;;;;;;;12.24;36.42;101064.92;2110769;83;21033;-82
2022/03/22 08:28:18;;;;;;;40.05;22.30;;;;;;;12.41;33.40;101060.36;2117549;84;21037;-82
2022/03/22 08:34:21;;;;;;;36.68;21.37;;;;;;;12.57;34.37;101061.43;2095783;84;21025;-83
2022/03/22 08:37:23;;;;;;;31.02;21.07;;;;;;;12.70;33.70;101055.83;2107945;84;20994;-81
2022/03/22 08:40:23;;;;;;;31.00;21.37;;;;;;;12.84;33.67;101055.45;2108824;83;21050;-82
2022/03/22 08:43:27;;;;;;;33.90;20.55;;;;;;;12.98;33.25;101054.25;2110693;84;20979;-83
2022/03/22 08:46:27;;;;;;;29.12;20.92;;;;;;;13.04;32.37;101050.16;2115105;83;21061;-81
2022/03/22 08:49:28;;;;;;;33.55;23.25;;;;;;;13.12;32.32;101051.75;2109870;83;21022;-83
2022/03/22 08:52:29;;;;;;;37.40;23.10;;;;;;;13.12;32.50;101055.68;2117095;84;21025;-84
2022/03/22 08:55:29;;;;;;;35.40;24.50;;;;;;;13.27;32.03;101057.58;2110124;84;21033;-84
2022/03/22 08:58:30;;;;;;;35.30;24.15;;;;;;;13.33;31.88;101054.28;2110381;84;21425;-84
2022/03/22 09:01:30;;;;;;;38.60;26.02;;;;;;;13.38;31.09;101049.67;2116453;83;20986;-83
2022/03/22 09:07:51;;;;;;;35.25;24.30;;;;;;;13.55;31.45;101043.70;2117124;84;20978;-82
2022/03/22 09:10:52;;;;;;;35.13;24.12;;;;;;;13.66;31.39;101036.20;2118706;84;21042;-82
2022/03/22 09:13:54;;;;;;;42.80;24.37;;;;;;;13.74;31.62;101037.36;2109700;83;21026;-82
2022/03/22 09:16:55;;;;;;;31.23;22.27;;;;;;;13.78;31.04;101032.67;2108006;83;22124;-82
2022/03/22 09:19:55;;;;;;;32.53;21.60;;;;;;;13.82;31.60;101030.63;2119704;83;21022;-81
2022/03/22 09:22:56;;;;;;;27.65;20.48;;;;;;;13.92;31.02;101033.17;2118871;84;22084;-82
2022/03/22 09:25:57;;;;;;;31.42;22.42;;;;;;;13.95;31.57;101027.60;2110221;83;20978;-82
2022/03/22 09:28:58;;;;;;;38.33;21.50;;;;;;;14.05;30.13;101030.11;2109980;84;20982;-81
2022/03/22 09:31:58;;;;;;;34.58;21.45;;;;;;;14.19;31.20;101025.30;2123537;84;20975;-83
2022/03/22 09:34:59;;;;;;;34.33;21.05;;;;;;;14.23;30.90;101026.75;2119572;84;20981;-83
2022/03/22 09:38:00;;;;;;;32.03;20.45;;;;;;;14.37;30.96;101014.05;2101330;84;21020;-84
2022/03/22 09:41:00;;;;;;;29.72;19.27;;;;;;;14.60;30.31;101010.84;2114885;84;20998;-83
2022/03/22 09:44:02;;;;;;;28.52;17.67;;;;;;;14.72;30.61;101003.73;2110542;83;21030;-83
2022/03/22 09:47:03;;;;;;;26.17;18.02;;;;;;;14.82;30.14;101000.14;2108862;84;21108;-81
2022/03/22 09:50:04;;;;;;;31.00;19.00;;;;;;;14.83;29.50;101002.34;2116073;84;21010;-83
2022/03/22 09:53:04;;;;;;;31.20;20.25;;;;;;;14.84;29.59;100992.30;2099335;84;21049;-83
2022/03/22 09:56:05;;;;;;;52.65;19.15;;;;;;;14.84;29.60;100987.93;2116835;84;21015;-83
2022/03/22 09:59:06;;;;;;;21.45;16.75;;;;;;;14.87;29.43;100989.33;2108605;83;20998;-84
2022/03/22 10:02:06;;;;;;;78.72;21.37;;;;;;;14.95;29.23;100992.17;2118351;84;21132;-83
2022/03/22 10:05:07;;;;;;;27.77;17.67;;;;;;;15.00;29.14;100983.99;2118506;84;21041;-83
2022/03/22 10:08:07;;;;;;;24.52;17.75;;;;;;;15.13;29.54;100985.22;2117398;84;21512;-83
2022/03/22 10:11:08;;;;;;;27.58;18.00;;;;;;;15.22;29.21;100992.05;2116601;84;21003;-82
2022/03/22 10:14:09;;;;;;;30.35;17.65;;;;;;;15.33;29.09;100992.33;2117555;84;21065;-82
2022/03/22 10:17:09;;;;;;;28.77;17.80;;;;;;;15.39;28.56;100988.55;2115410;84;21085;-82
2022/03/22 10:20:10;;;;;;;28.30;19.57;;;;;;;15.36;28.41;100981.89;2115209;84;20986;-83
2022/03/22 10:23:10;;;;;;;100.75;22.90;;;;;;;15.44;28.53;100988.25;2121122;83;21032;-83
2022/03/22 10:26:10;;;;;;;24.98;16.25;;;;;;;15.49;28.49;100987.52;2120308;84;21010;-84
2022/03/22 10:29:11;;;;;;;21.82;16.12;;;;;;;15.60;27.57;100978.61;2116677;84;21021;-81
2022/03/22 10:32:12;;;;;;;24.25;17.75;;;;;;;15.56;27.66;100980.67;2123903;83;21580;-84
2022/03/22 10:35:12;;;;;;;26.70;17.00;;;;;;;15.55;27.81;100981.52;2110984;84;20986;-80
2022/03/22 10:38:13;;;;;;;21.45;15.30;;;;;;;15.54;27.34;100987.20;2118192;83;21405;-82
2022/03/22 10:41:13;;;;;;;26.15;16.90;;;;;;;15.55;27.17;100977.57;2111402;84;20982;-83
2022/03/22 10:44:14;;;;;;;23.22;17.90;;;;;;;15.58;27.03;100977.26;2114456;84;21022;-82
2022/03/22 10:47:16;;;;;;;58.25;21.12;;;;;;;15.70;27.40;100974.08;2108392;84;21456;-81
2022/03/22 10:50:18;;;;;;;26.37;16.77;;;;;;;15.75;27.88;100967.17;2116922;83;21512;-83
2022/03/22 10:53:18;;;;;;;22.10;15.38;;;;;;;15.88;27.49;100969.69;2117574;84;21832;-82
2022/03/22 10:56:18;;;;;;;25.85;16.82;;;;;;;15.96;26.78;100958.91;2110051;83;21041;-83
2022/03/22 10:59:19;;;;;;;39.85;18.42;;;;;;;16.05;27.17;100960.44;2122762;84;20983;-80
2022/03/22 11:02:19;;;;;;;50.28;18.07;;;;;;;16.05;27.59;100962.18;2121205;84;21441;-81
2022/03/22 11:05:20;;;;;;;21.93;15.55;;;;;;;16.13;27.16;100956.66;2107661;83;21624;-83
2022/03/22 11:08:21;;;;;;;23.85;14.90;;;;;;;16.20;26.98;100959.47;2106722;84;20983;-81
2022/03/22 11:11:22;;;;;;;35.95;16.90;;;;;;;16.27;26.40;100953.91;2115499;84;21009;-82
2022/03/22 11:14:22;;;;;;;29.42;15.60;;;;;;;16.24;26.59;100945.94;2119164;84;21061;-81
2022/03/22 11:17:23;;;;;;;22.80;15.70;;;;;;;16.27;26.75;100944.69;2115852;84;21077;-81
2022/03/22 11:20:23;;;;;;;62.78;20.15;;;;;;;16.38;26.56;100941.85;2115692;84;21045;-82
2022/03/22 11:23:24;;;;;;;26.05;17.32;;;;;;;16.47;26.74;100939.45;2107970;83;21041;-81
2022/03/22 11:26:27;;;;;;;27.73;16.85;;;;;;;16.49;26.41;100931.14;2116595;84;21282;-83
2022/03/22 11:29:27;;;;;;;25.12;16.20;;;;;;;16.58;26.91;100929.55;2117677;84;21149;-82
2022/03/22 11:35:47;;;;;;;34.13;19.23;;;;;;;16.69;26.12;100924.11;2117903;84;21022;-83
2022/03/22 11:38:48;;;;;;;28.17;17.70;;;;;;;16.76;26.48;100923.37;2118205;84;21035;-84
2022/03/22 11:45:07;;;;;;;22.15;15.70;;;;;;;16.97;25.92;100915.87;2122697;84;21081;-83
2022/03/22 11:48:07;;;;;;;218.27;32.42;;;;;;;17.06;25.84;100923.06;2121588;84;21008;-83
2022/03/22 11:51:08;;;;;;;33.02;18.40;;;;;;;17.18;25.73;100909.66;2106671;84;21014;-82
2022/03/22 11:54:09;;;;;;;26.87;17.20;;;;;;;17.28;25.59;100904.55;2115614;84;21058;-82
2022/03/22 11:57:09;;;;;;;24.72;16.42;;;;;;;17.33;25.53;100908.16;2115612;83;21465;-81
2022/03/22 12:00:11;;;;;;;92.25;22.55;;;;;;;17.34;25.48;100902.01;2121685;84;21315;-80
2022/03/22 12:03:12;;;;;;;26.90;14.95;;;;;;;17.40;25.25;100891.59;2114617;83;21025;-83
2022/03/22 12:06:12;;;;;;;22.62;15.78;;;;;;;17.45;24.45;100896.08;2117392;84;20994;-81
2022/03/22 12:09:13;;;;;;;24.25;18.07;;;;;;;17.41;24.48;100901.28;2108447;84;21006;-82
2022/03/22 12:12:13;;;;;;;26.12;17.45;;;;;;;17.27;25.02;100894.84;2106358;83;21240;-82
2022/03/22 12:15:16;;;;;;;28.60;18.73;;;;;;;17.24;24.41;100889.52;2116643;84;21141;-80
2022/03/22 12:18:17;;;;;;;68.30;20.80;;;;;;;17.28;24.96;100888.70;2103976;84;21465;-81
2022/03/22 12:21:18;;;;;;;31.33;19.17;;;;;;;17.34;25.28;100883.53;2090294;84;21025;-80
2022/03/22 12:24:18;;;;;;;31.80;17.92;;;;;;;17.38;24.57;100869.12;2091301;85;21018;-79
2022/03/22 12:27:19;;;;;;;21.40;16.60;;;;;;;17.43;24.54;100868.77;2091454;84;21006;-82
2022/03/22 12:30:20;;;;;;;27.13;18.15;;;;;;;17.47;24.62;100865.74;2092593;85;21954;-80
2022/03/22 12:33:21;;;;;;;40.08;19.77;;;;;;;17.56;24.73;100860.61;2091242;84;21609;-81
2022/03/22 12:36:22;;;;;;;30.60;19.42;;;;;;;17.61;24.72;100867.28;2093059;84;20982;-81
2022/03/22 12:39:25;;;;;;;108.87;27.32;;;;;;;17.64;24.47;100859.41;2091237;85;21038;-82
2022/03/22 12:42:26;;;;;;;26.00;16.82;;;;;;;17.68;24.66;100855.55;2092757;84;21494;-80
2022/03/22 12:45:26;;;;;;;24.00;15.43;;;;;;;17.70;24.03;100851.17;2088419;85;21058;-82
2022/03/22 12:48:28;;;;;;;29.00;17.15;;;;;;;17.67;23.68;100851.13;2092268;85;21299;-80
2022/03/22 12:51:31;;;;;;;22.32;16.67;;;;;;;17.67;23.91;100841.89;2089287;84;20971;-81
2022/03/22 12:54:31;;;;;;;23.40;16.30;;;;;;;17.67;24.01;100837.92;2091568;85;21085;-81
2022/03/22 12:57:33;;;;;;;26.60;17.75;;;;;;;17.71;23.89;100813.77;2090876;84;20991;-81
2022/03/22 13:00:34;;;;;;;21.37;16.77;;;;;;;17.68;23.78;100836.17;2089939;85;21043;-82
2022/03/22 13:03:36;;;;;;;30.12;17.82;;;;;;;17.58;24.28;100828.52;2090178;85;20983;-81
2022/03/22 13:06:39;;;;;;;22.82;15.55;;;;;;;17.55;24.73;100827.58;2092714;84;21085;-80
2022/03/22 13:12:59;;;;;;;25.30;15.65;;;;;;;17.57;23.93;100828.06;2090286;84;20951;-80
2022/03/22 13:15:59;;;;;;;29.98;16.23;;;;;;;17.62;24.57;100822.41;2090532;84;21129;-80
2022/03/22 13:19:00;;;;;;;27.07;14.93;;;;;;;17.73;24.32;100815.56;2109585;84;20979;-82
2022/03/22 13:22:00;;;;;;;27.95;15.75;;;;;;;17.75;24.41;100812.51;2122438;84;20990;-81
2022/03/22 13:25:01;;;;;;;21.20;14.58;;;;;;;17.80;24.00;100805.97;2122714;84;20978;-82
2022/03/22 13:28:02;;;;;;;20.32;14.40;;;;;;;17.89;24.18;100807.41;2109138;84;20955;-79
2022/03/22 13:31:02;;;;;;;30.60;15.13;;;;;;;17.97;23.97;100800.91;2108293;83;21240;-80
2022/03/22 13:34:02;;;;;;;22.30;15.08;;;;;;;17.97;24.12;100804.44;2110922;83;21018;-81
2022/03/22 13:37:03;;;;;;;20.32;13.83;;;;;;;17.90;24.08;100798.62;2116438;84;21458;-78
2022/03/22 13:40:04;;;;;;;20.80;14.70;;;;;;;17.86;24.35;100796.80;2111283;83;21362;-80
2022/03/22 13:43:04;;;;;;;24.52;13.90;;;;;;;17.90;24.35;100789.37;2117265;84;21441;-79
2022/03/22 13:46:05;;;;;;;18.67;12.53;;;;;;;17.94;24.03;100788.98;2116333;84;21999;-80
2022/03/22 13:49:05;;;;;;;23.15;12.65;;;;;;;17.92;23.96;100781.47;2116343;84;20975;-78
2022/03/22 13:52:06;;;;;;;17.45;12.33;;;;;;;17.92;23.74;100784.11;2106197;83;20994;-81
2022/03/22 13:55:06;;;;;;;16.55;11.68;;;;;;;17.89;23.62;100786.71;2118369;83;21018;-80
2022/03/22 13:58:07;;;;;;;58.92;13.32;;;;;;;17.85;23.56;100785.78;2122743;84;20955;-78
2022/03/22 14:01:10;;;;;;;39.45;13.03;;;;;;;17.82;23.28;100781.34;2123245;84;21238;-80
2022/03/22 14:04:09;;;;;;;18.90;12.58;;;;;;;17.80;23.90;100780.44;2122335;84;21117;-79
2022/03/22 14:07:10;;;;;;;47.67;13.88;;;;;;;17.78;23.92;100776.89;2120971;84;20950;-79
2022/03/22 14:10:10;;;;;;;18.42;11.75;;;;;;;17.77;24.16;100766.30;2111055;84;21276;-80
2022/03/22 14:13:11;;;;;;;17.85;10.38;;;;;;;17.80;23.91;100761.06;2107981;84;21010;-80
2022/03/22 14:16:11;;;;;;;15.72;11.25;;;;;;;17.74;23.07;100760.55;2121007;84;21010;-80
2022/03/22 14:19:14;;;;;;;20.08;11.93;;;;;;;17.71;23.25;100756.98;2120411;84;21006;-82
2022/03/22 14:22:14;;;;;;;26.57;12.43;;;;;;;17.66;23.48;100762.20;2108716;83;21041;-76
2022/03/22 14:25:14;;;;;;;34.90;11.70;;;;;;;17.69;23.97;100753.44;2116122;84;20982;-79
2022/03/22 14:28:15;;;;;;;18.98;10.72;;;;;;;17.74;23.85;100747.78;2114926;84;21022;-81